Decoded Metar for KTCL (TUSCALOOSA in AL, USA) (IATA:TCL) | Meteo·Mobile Aviation Weather
aviador You're here:

KTCL Decoded Metar

TUSCALOOSA in AL, USA
Report Time2019-07-22 01:53:00
UTC Time2019-07-22 02:04:41
Flight Rules vfr VFR
Wind190° at 04 kt
W.Decomp.*RWY 22: 3.5 kt HW 2 kt LCW
RWY 11: 0.7 kt HW 3.9 kt RCW
Visibility9999 m
Phenomena:N/A
Clouds:Few 035 Hf
Few 070 Hf
Expected CloudBase > 1,200 ft AGL from Temp-Dew spread
CeilingNone
Temp25°C (ISA +10)
Dew Point22°C (83% RH)
QNH1016 hPa
Density Alt1,604 ft
Elevation161 ft
Report Wrong Elevation
Raw Report
METAR KTCL 220153Z AUTO 19004KT 10SM FEW035 FEW070 25/22 A2999 RMK
AO2 RAB30E43 SLP151 P0000 T02500222 $=

Extra information for KTCL:More info

Metar Taf Metar & Taf Last 4 Metars F.Rules Stats Wind Profile Meteogram Temp Stats Airport Information Weather charts Add Link Nearby VenuesMetar ALERT Operation Metar Decoded Social comments

AIRNAV info for KTCL